Time;durP1;ratioP1;P1;durP2;ratioP2;P2;SDS_P1;SDS_P2;PMS_P1;PMS_P2;Temp;Humidity;BMP_temperature;BMP_pressure;BME280_temperature;BME280_humidity;BME280_pressure;Samples;Min_cycle;Max_cycle;Signal;HPM_P1;HPM_P2
2024/02/01 00:00:32;;;;;;;17.65;12.10;;;5.50;99.90;;;;;;5028560;28;20110;-64
2024/02/01 00:03:04;;;;;;;19.23;12.93;;;5.40;99.90;;;;;;5026510;28;20053;-64
2024/02/01 00:05:36;;;;;;;20.48;13.73;;;5.40;99.90;;;;;;5045405;28;20060;-64
2024/02/01 00:08:08;;;;;;;20.55;13.52;;;5.30;99.90;;;;;;5027859;28;20065;-64
2024/02/01 00:10:40;;;;;;;20.80;13.20;;;5.30;99.90;;;;;;5028604;28;20051;-64
2024/02/01 00:13:12;;;;;;;19.77;12.93;;;5.40;99.90;;;;;;5029210;28;20036;-64
2024/02/01 00:15:44;;;;;;;22.85;13.10;;;5.40;99.90;;;;;;5026553;28;20037;-64
2024/02/01 00:18:16;;;;;;;23.88;14.10;;;5.40;99.90;;;;;;5026539;28;20410;-64
2024/02/01 00:20:47;;;;;;;23.02;13.60;;;5.50;99.90;;;;;;5021833;28;20046;-64
2024/02/01 00:23:19;;;;;;;18.67;13.63;;;5.60;99.90;;;;;;5023596;28;20048;-64
2024/02/01 00:25:46;;;;;;;20.15;13.05;;;5.60;99.90;;;;;;5024641;28;20038;-64
2024/02/01 00:28:18;;;;;;;23.45;14.32;;;5.60;99.90;;;;;;5015798;28;20499;-66
2024/02/01 00:30:50;;;;;;;17.52;12.27;;;5.60;99.90;;;;;;5028295;28;20058;-64
2024/02/01 00:33:21;;;;;;;19.10;13.18;;;5.60;99.90;;;;;;5020088;28;20387;-64
2024/02/01 00:35:53;;;;;;;20.67;13.85;;;5.60;99.90;;;;;;5020184;28;20041;-64
2024/02/01 00:38:25;;;;;;;21.80;14.23;;;5.60;99.90;;;;;;5023978;28;20049;-64
2024/02/01 00:40:57;;;;;;;20.95;12.63;;;5.60;99.90;;;;;;5018785;28;20048;-64
2024/02/01 00:43:24;;;;;;;18.73;13.07;;;5.70;99.90;;;;;;5011747;28;20506;-64
2024/02/01 00:45:56;;;;;;;22.02;14.07;;;5.70;99.90;;;;;;5023126;28;20499;-64
2024/02/01 00:48:28;;;;;;;19.42;13.35;;;5.80;99.90;;;;;;5014440;28;20046;-64
2024/02/01 00:50:59;;;;;;;19.45;13.30;;;5.90;99.90;;;;;;5012772;28;20406;-64
2024/02/01 00:53:31;;;;;;;18.10;12.30;;;6.00;99.90;;;;;;5015670;28;20046;-64
2024/02/01 00:56:04;;;;;;;20.08;12.35;;;6.10;99.90;;;;;;5025893;28;20045;-64
2024/02/01 00:58:36;;;;;;;18.77;13.43;;;6.10;99.90;;;;;;5026684;28;20068;-64
2024/02/01 01:01:08;;;;;;;19.23;12.85;;;6.10;99.90;;;;;;5025539;28;20045;-64
2024/02/01 01:03:40;;;;;;;21.10;12.13;;;6.10;99.90;;;;;;5024109;28;20041;-64
2024/02/01 01:06:12;;;;;;;19.92;12.98;;;6.10;99.90;;;;;;5021120;28;20053;-64
2024/02/01 01:08:43;;;;;;;20.52;12.85;;;6.20;99.90;;;;;;5029092;28;20043;-64
2024/02/01 01:11:15;;;;;;;27.20;12.82;;;6.20;99.90;;;;;;5032698;28;20066;-64
2024/02/01 01:13:47;;;;;;;22.48;13.05;;;6.20;99.90;;;;;;5033646;28;20042;-64
2024/02/01 01:16:14;;;;;;;23.23;14.05;;;6.30;99.90;;;;;;5034338;28;20034;-64
2024/02/01 01:18:46;;;;;;;17.48;13.43;;;6.40;99.90;;;;;;5032746;28;20508;-64
2024/02/01 01:21:18;;;;;;;28.20;14.50;;;6.30;99.90;;;;;;5030480;28;20049;-63
2024/02/01 01:23:50;;;;;;;21.80;14.15;;;6.30;99.90;;;;;;5028792;28;20049;-64
2024/02/01 01:26:25;;;;;;;21.35;13.35;;;6.30;99.90;;;;;;5023896;28;20045;-64
2024/02/01 01:28:57;;;;;;;22.40;13.10;;;6.30;99.90;;;;;;5025067;28;20049;-64
2024/02/01 01:31:29;;;;;;;20.40;13.43;;;6.30;99.90;;;;;;5022859;28;20070;-64
2024/02/01 01:34:01;;;;;;;21.70;12.52;;;6.30;99.90;;;;;;5021505;28;20093;-64
2024/02/01 01:36:32;;;;;;;19.98;11.90;;;6.30;99.90;;;;;;5028203;28;20049;-64
2024/02/01 01:39:05;;;;;;;16.63;12.10;;;6.40;99.90;;;;;;5032866;28;20059;-64
2024/02/01 01:41:45;;;;;;;17.05;12.27;;;6.30;99.90;;;;;;5033290;28;20037;-64
2024/02/01 01:44:17;;;;;;;18.17;12.10;;;6.30;99.90;;;;;;5032694;28;20096;-64
2024/02/01 01:46:49;;;;;;;20.40;12.90;;;6.30;99.90;;;;;;5017742;28;20072;-64
2024/02/01 01:49:21;;;;;;;21.10;13.35;;;6.30;99.90;;;;;;5031037;28;20042;-64
2024/02/01 01:51:54;;;;;;;19.38;12.05;;;6.20;99.90;;;;;;5031628;28;20057;-64
2024/02/01 01:54:26;;;;;;;22.50;13.85;;;6.20;99.90;;;;;;5025200;28;20048;-63
2024/02/01 01:56:59;;;;;;;18.92;12.25;;;6.20;99.90;;;;;;5021587;28;20042;-64
2024/02/01 01:59:32;;;;;;;17.70;11.88;;;6.20;99.90;;;;;;5024943;28;20046;-64
2024/02/01 02:02:05;;;;;;;17.80;11.60;;;6.20;99.90;;;;;;5030024;28;20050;-64
2024/02/01 02:04:38;;;;;;;21.80;11.20;;;6.20;99.90;;;;;;5017191;28;20107;-64
2024/02/01 02:07:10;;;;;;;16.27;10.90;;;6.20;99.90;;;;;;5033848;28;20057;-63
2024/02/01 02:09:42;;;;;;;20.45;11.77;;;6.30;99.90;;;;;;5030401;28;20102;-64
2024/02/01 02:12:15;;;;;;;16.30;10.18;;;6.30;99.90;;;;;;5018301;28;20045;-64
2024/02/01 02:15:00;;;;;;;15.32;10.10;;;6.40;99.90;;;;;;5024185;28;20049;-64
2024/02/01 02:17:32;;;;;;;19.92;10.70;;;6.40;99.90;;;;;;5018185;28;20042;-64
2024/02/01 02:20:26;;;;;;;17.63;10.55;;;6.50;99.90;;;;;;5019392;28;20057;-64
2024/02/01 02:22:58;;;;;;;18.20;10.88;;;6.50;99.90;;;;;;5024518;28;20045;-64
2024/02/01 02:25:25;;;;;;;15.55;10.52;;;6.50;99.90;;;;;;5026931;28;20132;-64
2024/02/01 02:27:56;;;;;;;17.40;10.93;;;6.40;99.90;;;;;;5021825;28;20041;-64
2024/02/01 02:30:23;;;;;;;14.43;10.80;;;6.40;99.90;;;;;;5016630;28;20529;-64
2024/02/01 02:32:55;;;;;;;19.45;11.05;;;6.40;99.90;;;;;;5029765;28;20044;-64
2024/02/01 02:35:27;;;;;;;15.25;10.00;;;6.40;99.90;;;;;;5023328;28;20042;-64
2024/02/01 02:37:59;;;;;;;15.75;9.90;;;6.40;99.90;;;;;;5030252;28;20119;-64
2024/02/01 02:40:31;;;;;;;15.13;10.02;;;6.40;99.90;;;;;;5027842;28;20431;-64
2024/02/01 02:43:03;;;;;;;17.40;10.48;;;6.40;99.90;;;;;;5024993;28;20123;-64
2024/02/01 02:45:35;;;;;;;18.95;11.00;;;6.40;99.90;;;;;;5028674;28;20498;-64
2024/02/01 02:48:09;;;;;;;13.23;8.85;;;6.40;99.90;;;;;;5022592;28;20525;-64
2024/02/01 02:50:41;;;;;;;14.40;9.45;;;6.50;99.90;;;;;;5025700;28;20052;-64
2024/02/01 02:53:13;;;;;;;13.88;8.40;;;6.50;99.90;;;;;;5017291;28;20050;-64
2024/02/01 02:55:45;;;;;;;18.02;10.48;;;6.50;99.90;;;;;;5017537;28;20050;-64
2024/02/01 02:58:17;;;;;;;15.38;10.45;;;6.50;99.90;;;;;;5031381;28;20037;-65
2024/02/01 03:00:50;;;;;;;14.73;9.52;;;6.50;99.90;;;;;;5033114;28;20041;-63
2024/02/01 03:03:17;;;;;;;13.00;8.93;;;6.50;99.90;;;;;;5029351;28;20132;-64
2024/02/01 03:05:48;;;;;;;21.30;9.65;;;6.50;99.90;;;;;;5017522;28;20407;-64
2024/02/01 03:08:20;;;;;;;19.15;9.50;;;6.50;99.90;;;;;;5018551;28;20064;-64
2024/02/01 03:10:47;;;;;;;14.35;8.38;;;6.50;99.90;;;;;;5012801;28;20495;-64
2024/02/01 03:13:19;;;;;;;12.32;8.15;;;6.60;99.90;;;;;;5022535;28;20046;-64
2024/02/01 03:15:52;;;;;;;14.90;8.70;;;6.60;99.90;;;;;;5024145;28;20502;-65
2024/02/01 03:18:23;;;;;;;14.50;7.63;;;6.60;99.90;;;;;;5019440;28;20050;-64
2024/02/01 03:20:56;;;;;;;13.05;7.85;;;6.70;99.90;;;;;;5015627;28;20056;-64
2024/02/01 03:23:28;;;;;;;10.60;8.02;;;6.70;99.90;;;;;;5015716;28;20437;-64
2024/02/01 03:25:59;;;;;;;15.90;8.27;;;6.70;99.90;;;;;;5016050;28;20104;-64
2024/02/01 03:28:31;;;;;;;13.52;8.20;;;6.80;99.90;;;;;;5014032;28;20073;-64
2024/02/01 03:31:03;;;;;;;14.65;8.27;;;6.80;99.90;;;;;;5016077;28;20475;-64
2024/02/01 03:33:38;;;;;;;14.75;7.85;;;6.80;99.90;;;;;;5017245;28;20057;-63
2024/02/01 03:36:11;;;;;;;14.65;8.00;;;6.90;99.90;;;;;;5018731;28;20045;-64
2024/02/01 03:38:42;;;;;;;19.85;8.55;;;7.00;99.90;;;;;;5020416;28;20048;-64
2024/02/01 03:41:15;;;;;;;15.18;8.60;;;7.00;99.90;;;;;;5024008;28;20053;-64
2024/02/01 03:43:48;;;;;;;14.00;8.80;;;7.00;99.90;;;;;;5019143;28;20049;-64
2024/02/01 03:46:22;;;;;;;12.02;8.30;;;7.00;99.90;;;;;;5024423;28;20042;-64
2024/02/01 03:48:54;;;;;;;20.05;8.50;;;7.00;99.90;;;;;;5026635;28;20033;-64
2024/02/01 03:51:26;;;;;;;13.77;7.63;;;7.00;99.90;;;;;;5023920;28;20516;-64
2024/02/01 03:53:53;;;;;;;14.38;7.95;;;7.00;99.90;;;;;;5030178;28;20433;-64
2024/02/01 03:56:26;;;;;;;13.73;8.15;;;7.00;99.90;;;;;;5028857;28;20051;-64
2024/02/01 03:59:01;;;;;;;13.45;7.57;;;7.10;99.90;;;;;;5017599;28;20609;-64
2024/02/01 04:01:32;;;;;;;16.60;9.45;;;7.00;99.90;;;;;;5026129;28;20048;-64
2024/02/01 04:04:07;;;;;;;12.05;7.78;;;7.10;99.90;;;;;;5023845;28;20045;-64
2024/02/01 04:06:39;;;;;;;14.52;8.43;;;7.00;99.90;;;;;;5022002;28;20041;-64
2024/02/01 04:09:12;;;;;;;11.93;8.88;;;7.10;99.90;;;;;;5020093;28;20061;-64
2024/02/01 04:11:44;;;;;;;14.45;8.75;;;7.10;99.90;;;;;;5016915;28;20557;-64
2024/02/01 04:14:15;;;;;;;14.40;9.23;;;7.10;99.90;;;;;;5015808;28;20043;-64
2024/02/01 04:16:47;;;;;;;16.55;9.30;;;7.10;99.90;;;;;;5009110;28;20069;-64
2024/02/01 04:19:19;;;;;;;18.13;9.38;;;7.20;99.90;;;;;;5013561;28;20452;-64
2024/02/01 04:21:47;;;;;;;13.32;9.38;;;7.20;99.90;;;;;;5022739;28;20120;-65
2024/02/01 04:24:19;;;;;;;15.40;8.97;;;7.20;99.90;;;;;;5028909;28;20049;-64
2024/02/01 04:26:51;;;;;;;19.63;10.45;;;7.20;99.90;;;;;;5027375;28;20049;-64
2024/02/01 04:29:23;;;;;;;14.43;9.23;;;7.20;99.90;;;;;;5021332;28;20568;-64
2024/02/01 04:31:54;;;;;;;18.40;9.88;;;7.20;99.90;;;;;;5028607;28;20038;-64
2024/02/01 04:34:27;;;;;;;18.38;10.88;;;7.20;99.90;;;;;;5026414;28;20037;-64
2024/02/01 04:36:59;;;;;;;17.10;10.68;;;7.20;99.90;;;;;;5029516;28;20107;-64
2024/02/01 04:39:32;;;;;;;17.02;10.35;;;7.20;99.90;;;;;;5019952;28;20069;-64
2024/02/01 04:42:16;;;;;;;15.85;11.77;;;7.20;99.90;;;;;;5032304;28;20064;-63
2024/02/01 04:44:46;;;;;;;19.92;11.48;;;7.20;99.90;;;;;;5033246;28;20063;-64
2024/02/01 04:47:18;;;;;;;18.75;10.82;;;7.20;99.90;;;;;;5033118;28;20049;-64
2024/02/01 04:49:50;;;;;;;15.88;10.70;;;7.20;99.90;;;;;;5019566;28;20042;-64
2024/02/01 04:52:22;;;;;;;17.23;10.40;;;7.20;99.90;;;;;;5031790;28;20046;-72
2024/02/01 04:54:54;;;;;;;15.00;9.93;;;7.10;99.90;;;;;;5023071;28;20048;-63
2024/02/01 04:57:26;;;;;;;17.42;10.55;;;7.20;99.90;;;;;;5024740;28;20041;-63
2024/02/01 04:59:58;;;;;;;18.35;10.88;;;7.10;99.90;;;;;;5026274;28;20057;-63
2024/02/01 05:02:30;;;;;;;20.92;9.90;;;7.10;99.90;;;;;;5020777;28;20089;-63
2024/02/01 05:05:04;;;;;;;16.13;10.57;;;7.10;99.90;;;;;;5033746;28;20810;-64
2024/02/01 05:07:30;;;;;;;15.15;10.05;;;7.10;99.90;;;;;;5021281;28;20509;-64
2024/02/01 05:10:07;;;;;;;19.38;10.50;;;7.10;99.90;;;;;;5041928;28;20037;-64
2024/02/01 05:12:37;;;;;;;26.38;11.65;;;7.10;99.90;;;;;;5032770;28;20091;-64
2024/02/01 05:15:11;;;;;;;15.48;11.10;;;7.10;99.90;;;;;;5019165;28;20030;-63
2024/02/01 05:17:43;;;;;;;18.50;11.35;;;7.10;99.90;;;;;;5033781;28;20041;-64
2024/02/01 05:20:11;;;;;;;17.70;10.18;;;7.00;99.90;;;;;;5029617;28;20056;-64
2024/02/01 05:22:43;;;;;;;18.17;10.30;;;7.00;99.90;;;;;;5015721;28;20041;-63
2024/02/01 05:25:15;;;;;;;14.52;9.93;;;7.10;99.90;;;;;;5026569;28;20124;-64
2024/02/01 05:27:52;;;;;;;19.13;10.75;;;7.10;99.90;;;;;;5027379;28;20125;-64
2024/02/01 05:30:24;;;;;;;20.10;9.60;;;7.20;99.90;;;;;;5032243;28;20033;-64
2024/02/01 05:32:56;;;;;;;16.02;10.25;;;7.20;99.90;;;;;;5030997;28;20502;-64
2024/02/01 05:35:29;;;;;;;17.33;11.18;;;7.20;99.90;;;;;;5025261;28;20048;-64
2024/02/01 05:38:05;;;;;;;14.15;9.85;;;7.10;99.90;;;;;;5024491;28;20418;-64
2024/02/01 05:40:38;;;;;;;19.23;10.75;;;7.20;99.90;;;;;;5028033;28;20046;-64
2024/02/01 05:43:12;;;;;;;16.67;9.45;;;7.20;99.90;;;;;;5011192;28;20049;-64
2024/02/01 05:45:44;;;;;;;15.55;10.02;;;7.30;99.90;;;;;;5028182;28;20503;-64
2024/02/01 05:48:18;;;;;;;17.30;9.82;;;7.20;99.90;;;;;;5031745;28;21384;-64
2024/02/01 05:50:50;;;;;;;16.15;9.95;;;7.20;99.90;;;;;;5034002;28;20045;-64
2024/02/01 05:53:22;;;;;;;15.82;10.35;;;7.20;99.90;;;;;;5027105;28;20042;-63
2024/02/01 05:55:54;;;;;;;18.50;12.07;;;7.30;99.90;;;;;;5024477;28;20056;-64
2024/02/01 05:58:27;;;;;;;15.93;10.30;;;7.30;99.90;;;;;;5017278;28;20127;-64
2024/02/01 06:00:59;;;;;;;16.35;10.05;;;7.30;99.90;;;;;;5015624;28;20107;-64
2024/02/01 06:03:31;;;;;;;15.05;9.52;;;7.30;99.90;;;;;;5016480;28;20068;-64
2024/02/01 06:06:03;;;;;;;16.80;9.95;;;7.30;99.90;;;;;;5017497;28;20109;-64
2024/02/01 06:08:30;;;;;;;19.23;10.05;;;7.30;99.90;;;;;;5015234;28;20041;-64
2024/02/01 06:11:03;;;;;;;15.10;9.88;;;7.30;99.90;;;;;;5027793;28;20099;-64
2024/02/01 06:13:35;;;;;;;15.13;9.70;;;7.20;99.90;;;;;;5021885;28;20498;-64
2024/02/01 06:16:11;;;;;;;14.80;9.52;;;7.20;99.90;;;;;;5023393;28;20051;-64
2024/02/01 06:18:43;;;;;;;14.80;9.75;;;7.30;99.90;;;;;;5021234;28;20482;-64
2024/02/01 06:21:16;;;;;;;13.82;9.07;;;7.30;99.90;;;;;;5022641;28;20052;-64
2024/02/01 06:23:43;;;;;;;17.52;10.85;;;7.30;99.90;;;;;;5025002;28;20520;-64
2024/02/01 06:26:25;;;;;;;16.92;9.90;;;7.30;99.90;;;;;;5022870;28;20414;-64
2024/02/01 06:28:59;;;;;;;11.65;8.32;;;7.30;99.90;;;;;;5025657;28;20045;-64
2024/02/01 06:31:31;;;;;;;16.73;9.02;;;7.30;99.90;;;;;;5029976;28;20473;-64
2024/02/01 06:34:08;;;;;;;20.50;9.50;;;7.30;99.90;;;;;;5024687;28;20423;-64
2024/02/01 06:36:38;;;;;;;13.52;9.45;;;7.40;99.90;;;;;;5016254;28;20046;-64
2024/02/01 06:41:50;;;;;;;15.43;9.13;;;7.40;99.90;;;;;;5029813;28;20042;-64
2024/02/01 06:44:26;;;;;;;17.23;9.40;;;7.40;99.90;;;;;;5023167;28;20072;-63
2024/02/01 06:50:15;;;;;;;17.73;10.25;;;7.40;99.90;;;;;;5028526;28;20037;-64
2024/02/01 06:54:55;;;;;;;17.58;9.73;;;7.30;99.90;;;;;;5027358;28;20050;-64
2024/02/01 06:57:44;;;;;;;14.75;9.25;;;7.30;99.90;;;;;;5027086;28;20040;-64
2024/02/01 07:08:45;;;;;;;17.13;11.35;;;7.10;99.90;;;;;;5027520;28;20046;-65
2024/02/01 07:11:25;;;;;;;18.20;11.07;;;7.00;99.90;;;;;;5027018;28;20052;-64
2024/02/01 07:16:54;;;;;;;19.63;10.43;;;6.90;99.90;;;;;;5024289;28;20041;-65
2024/02/01 07:22:10;;;;;;;17.30;10.93;;;6.80;99.90;;;;;;5027209;28;20065;-65
2024/02/01 07:58:49;;;;;;;25.50;14.02;;;6.60;99.90;;;;;;5026157;28;20420;-63
2024/02/01 08:01:24;;;;;;;21.42;14.90;;;6.60;99.90;;;;;;4996336;28;20471;-64
2024/02/01 08:04:12;;;;;;;24.35;14.93;;;6.50;99.90;;;;;;5024093;28;20049;-63
2024/02/01 08:09:35;;;;;;;25.67;16.13;;;6.60;99.90;;;;;;5024385;28;20077;-64
2024/02/01 08:12:07;;;;;;;28.52;16.77;;;6.50;99.90;;;;;;5028430;28;20038;-64
2024/02/01 08:14:38;;;;;;;24.10;16.70;;;6.50;99.90;;;;;;5027114;28;20057;-64
2024/02/01 08:17:10;;;;;;;32.05;17.40;;;6.50;99.90;;;;;;5028300;28;20034;-64
2024/02/01 08:19:42;;;;;;;27.83;18.75;;;6.40;99.90;;;;;;5005561;28;20049;-64
2024/02/01 08:22:14;;;;;;;29.33;17.45;;;6.40;99.90;;;;;;5031389;28;20047;-64
2024/02/01 08:24:41;;;;;;;32.28;18.48;;;6.40;99.90;;;;;;5032529;28;20132;-64
2024/02/01 08:27:14;;;;;;;28.75;18.27;;;6.40;99.90;;;;;;5001290;28;20052;-64
2024/02/01 08:29:47;;;;;;;28.98;17.88;;;6.40;99.90;;;;;;5010485;28;20790;-64
2024/02/01 08:32:19;;;;;;;29.10;18.00;;;6.40;99.90;;;;;;5029720;28;20133;-64
2024/02/01 08:34:47;;;;;;;30.92;18.50;;;6.40;99.90;;;;;;5007259;28;20604;-64
2024/02/01 08:37:18;;;;;;;32.30;19.85;;;6.40;99.90;;;;;;5028193;28;20045;-64
2024/02/01 08:39:45;;;;;;;29.90;18.08;;;6.40;99.90;;;;;;5028353;28;20046;-64
2024/02/01 08:42:12;;;;;;;29.38;18.23;;;6.40;99.90;;;;;;5027589;28;20041;-64
2024/02/01 08:44:39;;;;;;;29.55;18.75;;;6.40;99.90;;;;;;5027911;28;20045;-64
2024/02/01 08:47:13;;;;;;;28.10;17.75;;;6.40;99.90;;;;;;5029066;28;20481;-64
2024/02/01 08:49:45;;;;;;;29.85;18.35;;;6.40;99.90;;;;;;5012380;28;20038;-64
2024/02/01 08:52:17;;;;;;;26.70;18.48;;;6.40;99.90;;;;;;5011016;28;20051;-64
2024/02/01 08:54:49;;;;;;;28.83;19.65;;;6.40;99.90;;;;;;5003915;28;20518;-64
2024/02/01 08:57:21;;;;;;;26.95;17.63;;;6.50;99.90;;;;;;5008708;28;20133;-64
2024/02/01 08:59:48;;;;;;;30.83;18.85;;;6.40;99.90;;;;;;5028099;28;20043;-64
2024/02/01 09:02:20;;;;;;;29.83;18.65;;;6.50;99.90;;;;;;5010751;28;20408;-64
2024/02/01 09:04:53;;;;;;;33.58;19.58;;;6.50;99.90;;;;;;5028398;28;20056;-64
2024/02/01 09:07:26;;;;;;;34.37;20.17;;;6.50;99.90;;;;;;5011480;28;20041;-64
2024/02/01 09:09:58;;;;;;;27.27;19.17;;;6.50;99.90;;;;;;5027981;28;20045;-64
2024/02/01 09:12:25;;;;;;;32.50;19.63;;;6.50;99.90;;;;;;5010645;28;20122;-64
2024/02/01 09:14:57;;;;;;;43.63;24.95;;;6.50;99.90;;;;;;5000236;28;20121;-64
2024/02/01 09:17:29;;;;;;;32.97;20.85;;;6.50;99.90;;;;;;5027555;28;20037;-64
2024/02/01 09:20:01;;;;;;;53.38;34.90;;;6.40;99.90;;;;;;5013271;28;20091;-64
2024/02/01 09:22:32;;;;;;;51.38;29.17;;;6.50;99.90;;;;;;5002313;28;20052;-64
2024/02/01 09:25:05;;;;;;;27.20;18.15;;;6.50;99.90;;;;;;5014533;28;20045;-64
2024/02/01 09:27:40;;;;;;;52.25;32.97;;;6.50;99.90;;;;;;5032811;28;20057;-64
2024/02/01 09:30:12;;;;;;;31.77;20.45;;;6.50;99.90;;;;;;5032669;28;20048;-65
2024/02/01 09:32:44;;;;;;;27.95;18.70;;;6.50;99.90;;;;;;5030052;28;20048;-64
2024/02/01 09:35:17;;;;;;;30.75;19.83;;;6.50;99.90;;;;;;5027649;28;20477;-65
2024/02/01 09:37:53;;;;;;;32.17;21.95;;;6.50;99.90;;;;;;5032664;28;20504;-64
2024/02/01 09:40:26;;;;;;;33.85;20.38;;;6.50;99.90;;;;;;5031339;28;20099;-64
2024/02/01 09:42:52;;;;;;;31.48;21.00;;;6.50;99.90;;;;;;5035182;28;20046;-65
2024/02/01 09:45:28;;;;;;;35.90;20.60;;;6.50;99.90;;;;;;5027667;28;20045;-64
2024/02/01 09:48:00;;;;;;;28.75;19.30;;;6.60;99.90;;;;;;5027220;28;20485;-64
2024/02/01 09:50:27;;;;;;;29.10;18.95;;;6.50;99.90;;;;;;5028624;28;20045;-64
2024/02/01 09:53:02;;;;;;;30.20;17.42;;;6.50;99.90;;;;;;5029802;28;20048;-64
2024/02/01 09:55:33;;;;;;;26.45;17.90;;;6.50;99.90;;;;;;5025198;28;20045;-64
2024/02/01 09:58:00;;;;;;;29.88;18.23;;;6.60;99.90;;;;;;4991994;28;20045;-64
2024/02/01 10:00:33;;;;;;;29.15;17.60;;;6.50;99.90;;;;;;5006647;28;20488;-64
2024/02/01 10:03:00;;;;;;;29.63;17.95;;;6.50;99.90;;;;;;5029167;28;20096;-64
2024/02/01 10:05:33;;;;;;;27.63;18.45;;;6.50;99.90;;;;;;5030472;28;20542;-64
2024/02/01 10:08:00;;;;;;;27.40;19.75;;;6.60;99.90;;;;;;5029312;28;20038;-64
2024/02/01 10:10:38;;;;;;;44.00;29.08;;;6.50;99.90;;;;;;5028679;28;20096;-64
2024/02/01 10:13:14;;;;;;;33.03;20.83;;;6.60;99.90;;;;;;5029246;28;20057;-64
2024/02/01 10:15:47;;;;;;;35.60;23.85;;;6.60;99.90;;;;;;5014575;28;20549;-64
2024/02/01 10:18:20;;;;;;;33.45;22.83;;;6.50;99.90;;;;;;5027966;28;20026;-64
2024/02/01 10:20:50;;;;;;;27.67;19.00;;;6.60;99.90;;;;;;5030663;28;20136;-64
2024/02/01 10:23:22;;;;;;;32.97;21.17;;;6.60;99.90;;;;;;5028260;28;20433;-64
2024/02/01 10:25:55;;;;;;;35.47;23.60;;;6.60;99.90;;;;;;5031058;28;20150;-64
2024/02/01 10:28:34;;;;;;;35.63;21.10;;;6.60;99.90;;;;;;5025312;28;20046;-64
2024/02/01 10:31:08;;;;;;;33.22;22.38;;;6.60;99.90;;;;;;5026820;28;20034;-64
2024/02/01 10:33:36;;;;;;;34.33;22.70;;;6.60;99.90;;;;;;5029660;28;20487;-64
2024/02/01 10:36:12;;;;;;;30.23;21.17;;;6.60;99.90;;;;;;5028670;28;20045;-64
2024/02/01 10:38:47;;;;;;;29.45;18.08;;;6.60;99.90;;;;;;5027706;28;20045;-64
2024/02/01 10:41:28;;;;;;;31.42;21.13;;;6.60;99.90;;;;;;5012195;28;20041;-64
2024/02/01 10:43:56;;;;;;;28.08;18.50;;;6.60;99.90;;;;;;5032348;28;20041;-64
2024/02/01 10:46:35;;;;;;;31.75;19.20;;;6.70;99.90;;;;;;5025080;28;20486;-64
2024/02/01 10:49:24;;;;;;;31.42;19.60;;;6.60;99.90;;;;;;5028004;28;20052;-64
2024/02/01 10:51:56;;;;;;;;;;;6.70;99.90;;;;;;5009991;28;20045;-64
2024/02/01 10:54:30;;;;;;;27.48;18.17;;;6.60;99.90;;;;;;5028044;28;19921;-64
2024/02/01 10:57:06;;;;;;;30.83;17.60;;;6.70;99.90;;;;;;5026806;28;20065;-64
2024/02/01 10:59:39;;;;;;;24.80;17.38;;;6.70;99.90;;;;;;5011952;28;20048;-64
2024/02/01 11:02:07;;;;;;;29.02;18.45;;;6.70;99.90;;;;;;5011844;28;20083;-64
2024/02/01 11:04:39;;;;;;;26.80;15.55;;;6.70;99.90;;;;;;5029514;28;20497;-64
2024/02/01 11:07:28;;;;;;;30.88;18.55;;;6.80;99.90;;;;;;5008799;28;20048;-64
2024/02/01 11:10:00;;;;;;;22.63;15.02;;;6.80;99.90;;;;;;5029855;28;20045;-64
2024/02/01 11:12:38;;;;;;;23.13;15.50;;;6.80;99.90;;;;;;5028462;28;20644;-65
2024/02/01 11:15:16;;;;;;;23.88;15.63;;;6.80;99.90;;;;;;5026014;28;20045;-64
2024/02/01 11:17:48;;;;;;;20.95;14.73;;;6.80;99.90;;;;;;4997918;28;20057;-65
2024/02/01 11:20:25;;;;;;;23.23;15.48;;;6.80;99.90;;;;;;5029718;28;20041;-65
2024/02/01 11:23:05;;;;;;;21.83;14.63;;;6.90;99.90;;;;;;5009516;28;20037;-65
2024/02/01 11:25:38;;;;;;;19.05;13.40;;;6.90;99.90;;;;;;5031225;28;20041;-65
2024/02/01 11:28:28;;;;;;;21.90;13.63;;;6.90;99.90;;;;;;5025774;28;20130;-65
2024/02/01 11:31:00;;;;;;;17.58;13.32;;;6.90;99.90;;;;;;5028773;28;20525;-65
2024/02/01 11:33:33;;;;;;;21.00;13.45;;;6.90;99.90;;;;;;5006867;28;20065;-65
2024/02/01 11:36:01;;;;;;;19.80;13.38;;;7.00;99.90;;;;;;5028510;28;20079;-65
2024/02/01 11:38:33;;;;;;;19.60;12.93;;;7.00;99.90;;;;;;5029517;28;20045;-65
2024/02/01 11:41:05;;;;;;;16.75;12.18;;;7.00;99.90;;;;;;5028383;28;20046;-65
2024/02/01 11:43:38;;;;;;;21.60;13.55;;;7.00;99.90;;;;;;5000511;28;20132;-65
2024/02/01 11:46:10;;;;;;;19.88;12.05;;;7.00;99.90;;;;;;5033879;28;20137;-65
2024/02/01 11:48:42;;;;;;;18.15;12.60;;;7.00;99.90;;;;;;5027920;28;20041;-64
2024/02/01 11:51:10;;;;;;;16.92;11.73;;;7.00;99.90;;;;;;5009369;28;20507;-65
2024/02/01 11:53:42;;;;;;;17.83;11.15;;;7.00;99.90;;;;;;5024714;28;20895;-65
2024/02/01 11:56:14;;;;;;;16.90;10.90;;;7.00;99.90;;;;;;5022528;28;20041;-65
2024/02/01 11:58:41;;;;;;;16.83;12.43;;;7.00;99.90;;;;;;5004966;28;20043;-64
2024/02/01 12:01:13;;;;;;;17.48;11.75;;;7.00;99.90;;;;;;5020569;28;20111;-65
2024/02/01 12:03:49;;;;;;;19.58;12.90;;;6.90;99.90;;;;;;5025127;28;20081;-66
2024/02/01 12:06:22;;;;;;;15.02;11.35;;;7.00;99.90;;;;;;5026219;28;20052;-66
2024/02/01 12:08:51;;;;;;;20.23;11.88;;;7.00;99.90;;;;;;5027559;28;20049;-65
2024/02/01 12:11:25;;;;;;;18.17;11.07;;;7.00;99.90;;;;;;5019256;28;20409;-65
2024/02/01 12:14:01;;;;;;;15.90;10.43;;;6.90;99.90;;;;;;5019975;28;20030;-64
2024/02/01 12:16:34;;;;;;;15.68;11.18;;;7.00;99.90;;;;;;5029120;28;20045;-65
2024/02/01 12:19:12;;;;;;;17.15;11.55;;;7.00;99.90;;;;;;5022658;28;20045;-65
2024/02/01 12:21:40;;;;;;;18.48;12.35;;;7.00;99.90;;;;;;5024619;28;20056;-65
2024/02/01 12:24:08;;;;;;;16.25;10.63;;;7.00;99.90;;;;;;5032442;28;20054;-64
2024/02/01 12:26:35;;;;;;;14.85;10.07;;;7.00;99.90;;;;;;5025873;28;20169;-64
2024/02/01 12:29:07;;;;;;;16.92;10.27;;;7.00;99.90;;;;;;5030762;28;20515;-64
2024/02/01 12:31:39;;;;;;;15.07;9.63;;;7.10;99.90;;;;;;5027667;28;20064;-64
2024/02/01 12:34:13;;;;;;;24.98;11.32;;;7.10;99.90;;;;;;5028355;28;20056;-64
2024/02/01 12:36:45;;;;;;;14.68;9.10;;;7.20;99.90;;;;;;5024585;28;20041;-64
2024/02/01 12:39:15;;;;;;;20.23;10.25;;;7.10;99.90;;;;;;5026551;28;20044;-64
2024/02/01 12:41:45;;;;;;;14.00;10.40;;;7.20;99.90;;;;;;5028912;28;20080;-64
2024/02/01 12:44:17;;;;;;;12.75;9.55;;;7.20;99.90;;;;;;5024728;28;20042;-64
2024/02/01 12:46:48;;;;;;;12.90;8.85;;;7.20;99.90;;;;;;5011591;28;20081;-64
2024/02/01 12:49:20;;;;;;;11.73;7.95;;;7.30;99.90;;;;;;5008117;28;20519;-64
2024/02/01 12:51:47;;;;;;;12.30;8.93;;;7.30;99.90;;;;;;5030085;28;20552;-65
2024/02/01 12:54:15;;;;;;;13.52;8.55;;;7.30;99.90;;;;;;5025247;28;20038;-65
2024/02/01 12:56:42;;;;;;;11.75;7.93;;;7.40;99.90;;;;;;5030098;28;20045;-64
2024/02/01 12:59:14;;;;;;;12.50;8.52;;;7.40;99.90;;;;;;5030939;28;20033;-65
2024/02/01 13:01:46;;;;;;;12.52;9.70;;;7.40;99.90;;;;;;5011322;28;20053;-64
2024/02/01 13:04:18;;;;;;;13.20;8.95;;;7.40;99.90;;;;;;5011538;28;20446;-64
2024/02/01 13:06:50;;;;;;;12.07;8.30;;;7.40;99.90;;;;;;5026260;28;20054;-64
2024/02/01 13:09:33;;;;;;;14.90;9.70;;;7.50;99.90;;;;;;5013577;28;20057;-64
2024/02/01 13:12:18;;;;;;;14.77;8.48;;;7.50;99.90;;;;;;5029734;28;20041;-65
2024/02/01 13:15:00;;;;;;;12.90;8.98;;;7.60;99.90;;;;;;5011869;28;20048;-64
2024/02/01 13:17:28;;;;;;;16.52;8.88;;;7.60;99.90;;;;;;5013035;28;20041;-64
2024/02/01 13:19:56;;;;;;;13.23;8.48;;;7.60;99.90;;;;;;5031487;28;20045;-64
2024/02/01 13:22:26;;;;;;;12.88;8.88;;;7.60;99.90;;;;;;5015721;28;20094;-64
2024/02/01 13:24:58;;;;;;;13.10;8.00;;;7.60;99.90;;;;;;5028132;28;20042;-64
2024/02/01 13:27:25;;;;;;;11.02;7.90;;;7.70;99.90;;;;;;5030413;28;20132;-64
2024/02/01 13:29:57;;;;;;;12.18;7.97;;;7.70;99.90;;;;;;5022595;28;20136;-64
2024/02/01 13:32:24;;;;;;;12.45;7.97;;;7.70;99.90;;;;;;5025615;28;20030;-64
2024/02/01 13:34:55;;;;;;;11.07;7.60;;;7.70;99.90;;;;;;5029069;28;20562;-64
2024/02/01 13:37:27;;;;;;;9.32;7.32;;;7.60;99.90;;;;;;5028089;28;20116;-64
2024/02/01 13:40:05;;;;;;;10.40;7.55;;;7.60;99.90;;;;;;5002843;28;20519;-64
2024/02/01 13:42:33;;;;;;;11.60;7.55;;;7.60;99.90;;;;;;5029227;28;20600;-64
2024/02/01 13:45:05;;;;;;;11.80;7.63;;;7.60;99.90;;;;;;5025881;28;20037;-64
2024/02/01 13:47:37;;;;;;;9.27;7.13;;;7.60;99.90;;;;;;5025676;28;20046;-64
2024/02/01 13:50:10;;;;;;;10.68;7.93;;;7.60;99.90;;;;;;5025470;28;20673;-64
2024/02/01 13:52:42;;;;;;;11.32;7.78;;;7.60;99.90;;;;;;5026891;28;20045;-64
2024/02/01 13:55:14;;;;;;;11.82;6.72;;;7.60;99.90;;;;;;5025845;28;20054;-64
2024/02/01 13:57:41;;;;;;;9.60;6.55;;;7.60;99.90;;;;;;5027730;28;20033;-64
2024/02/01 14:00:16;;;;;;;23.83;13.18;;;7.60;99.90;;;;;;5025283;28;20033;-64
2024/02/01 14:02:50;;;;;;;8.73;6.88;;;7.60;99.90;;;;;;5028259;28;20046;-64
2024/02/01 14:05:22;;;;;;;11.23;6.93;;;7.60;99.90;;;;;;5028175;28;20095;-64